This is the latest recevied weather packets stored in our database for station/object SR2GKG-13. If no packets are shown the sender has not sent any weather packets the latest 10 day(s).
| Time | Temp. | Humidity | Pressure | Rain* | Wind** | Luminosity | Snow |
|---|---|---|---|---|---|---|---|
| 1777391603 | 13.33° C | 25% | 1011.6 hPa | - | - | - | - |
| 1777390703 | 13.89° C | 25% | 1011.8 hPa | - | - | - | - |
| 1777389802 | 12.78° C | 27% | 1012 hPa | - | - | - | - |
| 1777388902 | 12.78° C | 27% | 1012.1 hPa | - | - | - | - |
| 1777388002 | 12.78° C | 26% | 1012.3 hPa | - | - | - | - |
| 1777387102 | 13.33° C | 25% | 1012.3 hPa | - | - | - | - |
| 1777386202 | 15° C | 23% | 1012.4 hPa | - | - | - | - |
| 1777385302 | 16.11° C | 22% | 1012.6 hPa | - | - | - | - |
| 1777384402 | 16.67° C | 22% | 1012.6 hPa | - | - | - | - |
| 1777383502 | 16.11° C | 21% | 1012.7 hPa | - | - | - | - |
| 1777382602 | 16.67° C | 21% | 1013 hPa | - | - | - | - |
| 1777381701 | 15° C | 23% | 1013 hPa | - | - | - | - |
| 1777380801 | 16.11° C | 23% | 1013.1 hPa | - | - | - | - |
| 1777379900 | 13.89° C | 24% | 1012.3 hPa | - | - | - | - |
| 1777379000 | 14.44° C | 24% | 1013.4 hPa | - | - | - | - |
| 1777378100 | 14.44° C | 26% | 1013.6 hPa | - | - | - | - |
| 1777377200 | 13.89° C | 27% | 1013.6 hPa | - | - | - | - |
| 1777376300 | 16.11° C | 23% | 1013.6 hPa | - | - | - | - |
| 1777375400 | 13.33° C | 29% | 1013.9 hPa | - | - | - | - |
| 1777374500 | 14.44° C | 26% | 1013.9 hPa | - | - | - | - |
| 1777373600 | 13.89° C | 26% | 1013.9 hPa | - | - | - | - |
| 1777372699 | 13.33° C | 27% | 1014 hPa | - | - | - | - |
| 1777371800 | 13.89° C | 27% | 1014.1 hPa | - | - | - | - |
| 1777370899 | 12.78° C | 29% | 1014.4 hPa | - | - | - | - |
| 1777369999 | 12.22° C | 28% | 1014.5 hPa | - | - | - | - |
* Rain since midnight (hover to see other rain measurements)
** Current wind speed in m/s (hover to see current wind gust speed)